createdAt,value
2019-01-08T00:01:33.894Z,46.37
2019-01-08T00:04:05.476Z,47.00
2019-01-08T00:06:35.275Z,44.43
2019-01-08T00:09:04.918Z,47.07
2019-01-08T00:11:34.246Z,47.80
2019-01-08T00:14:04.484Z,41.83
2019-01-08T00:16:34.174Z,42.50
2019-01-08T00:19:03.579Z,48.53
2019-01-08T00:21:32.886Z,41.67
2019-01-08T00:24:03.079Z,43.13
2019-01-08T00:26:32.412Z,40.17
2019-01-08T00:29:01.689Z,42.37
2019-01-08T00:31:31.312Z,41.10
2019-01-08T00:34:00.652Z,38.50
2019-01-08T00:36:29.953Z,41.83
2019-01-08T00:38:59.247Z,43.23
2019-01-08T00:41:28.916Z,46.60
2019-01-08T00:43:58.191Z,46.53
2019-01-08T00:46:28.347Z,40.63
2019-01-08T00:48:57.803Z,45.17
2019-01-08T00:51:27.104Z,46.50
2019-01-08T00:53:56.692Z,44.67
2019-01-08T00:56:26.127Z,44.37
2019-01-08T00:58:55.448Z,44.60
2019-01-08T01:01:24.726Z,50.33
2019-01-08T01:03:54.079Z,38.77
2019-01-08T01:06:23.664Z,47.17
2019-01-08T01:08:55.979Z,51.57
2019-01-08T01:11:25.408Z,38.77
2019-01-08T01:13:54.760Z,38.10
2019-01-08T01:16:24.434Z,41.57
2019-01-08T01:18:56.316Z,35.00
2019-01-08T01:21:25.604Z,38.13
2019-01-08T01:23:54.922Z,38.90
2019-01-08T01:26:24.521Z,33.10
2019-01-08T01:28:59.958Z,41.73
2019-01-08T01:31:24.895Z,30.67
2019-01-08T01:33:54.451Z,32.50
2019-01-08T01:36:23.792Z,36.13
2019-01-08T01:38:55.933Z,34.53
2019-01-08T01:41:25.272Z,36.33
2019-01-08T01:43:54.602Z,34.80
2019-01-08T01:46:23.924Z,38.23
2019-01-08T01:48:54.422Z,32.67
2019-01-08T01:51:23.841Z,36.43
2019-01-08T01:53:53.161Z,28.87
2019-01-08T01:56:22.530Z,39.20
2019-01-08T01:58:53.879Z,33.40
2019-01-08T02:01:23.503Z,34.80
2019-01-08T02:03:52.914Z,31.60
2019-01-08T02:06:22.304Z,33.53
2019-01-08T02:08:53.188Z,36.83
2019-01-08T02:11:22.513Z,32.37
2019-01-08T02:13:51.901Z,35.20
2019-01-08T02:16:21.469Z,37.87
2019-01-08T02:18:53.672Z,44.13
2019-01-08T02:21:23.218Z,35.87
2019-01-08T02:23:52.526Z,33.30
2019-01-08T02:26:21.899Z,34.50
2019-01-08T02:28:51.254Z,34.07
2019-01-08T02:31:20.862Z,30.60
2019-01-08T02:33:50.461Z,31.47
2019-01-08T02:36:19.789Z,33.50
2019-01-08T02:38:49.097Z,29.63
2019-01-08T02:41:18.949Z,25.60
2019-01-08T02:43:48.271Z,28.70
2019-01-08T02:46:17.748Z,29.97
2019-01-08T02:48:47.208Z,25.80
2019-01-08T02:51:17.374Z,33.30
2019-01-08T02:53:46.955Z,27.27
2019-01-08T02:56:16.312Z,25.63
2019-01-08T02:58:45.717Z,26.17
2019-01-08T03:01:15.018Z,21.63
2019-01-08T03:03:44.323Z,20.33
2019-01-08T03:06:13.620Z,14.70
2019-01-08T03:08:42.890Z,10.83
2019-01-08T03:11:12.378Z,9.50
2019-01-08T03:13:41.654Z,7.00
2019-01-08T03:16:11.362Z,7.20
2019-01-08T03:18:40.695Z,5.47
2019-01-08T03:21:09.954Z,5.87
2019-01-08T03:23:39.567Z,6.80
2019-01-08T03:26:08.859Z,5.57
